createdAt,value
2023-03-22T00:00:12.838Z,71.7
2023-03-22T00:01:12.908Z,71.7
2023-03-22T00:02:12.907Z,71.7
2023-03-22T00:03:12.857Z,71.7
2023-03-22T00:04:13.034Z,71.7
2023-03-22T00:05:12.954Z,71.7
2023-03-22T00:06:12.880Z,71.7
2023-03-22T00:07:12.900Z,71.7
2023-03-22T00:08:12.855Z,71.7
2023-03-22T00:09:12.887Z,71.7
2023-03-22T00:10:12.867Z,71.7
2023-03-22T00:11:12.862Z,71.7
2023-03-22T00:12:12.853Z,71.7
2023-03-22T00:13:12.902Z,71.7
2023-03-22T00:14:12.886Z,72.8
2023-03-22T00:15:12.885Z,72.8
2023-03-22T00:16:12.960Z,72.8
2023-03-22T00:17:12.943Z,72.8
2023-03-22T00:18:12.887Z,72.8
2023-03-22T00:19:12.885Z,72.8
2023-03-22T00:20:12.897Z,72.8
2023-03-22T00:21:12.898Z,72.8
2023-03-22T00:22:12.868Z,72.8
2023-03-22T00:23:12.893Z,72.8
2023-03-22T00:24:12.854Z,72.8
2023-03-22T00:25:12.902Z,72.8
2023-03-22T00:26:12.907Z,72.8
2023-03-22T00:27:12.901Z,72.8
2023-03-22T00:28:12.865Z,72.8
2023-03-22T00:29:12.856Z,72.8
2023-03-22T00:30:12.896Z,72.8
2023-03-22T00:31:12.967Z,72.8
2023-03-22T00:32:12.900Z,72.8
2023-03-22T00:33:12.903Z,72.8
2023-03-22T00:34:12.898Z,72.8
2023-03-22T00:35:12.909Z,72.8
2023-03-22T00:36:12.906Z,73.3
2023-03-22T00:37:12.861Z,73.3
2023-03-22T00:38:12.932Z,73.3
2023-03-22T00:39:12.891Z,73.3
2023-03-22T00:40:12.865Z,73.3
2023-03-22T00:41:12.985Z,73.6
2023-03-22T00:42:12.917Z,73.6
2023-03-22T00:43:12.875Z,73.6
2023-03-22T00:44:12.900Z,73.6
2023-03-22T00:45:12.910Z,73.6
2023-03-22T00:46:13.013Z,73.6
2023-03-22T00:47:12.896Z,73.6
2023-03-22T00:48:12.926Z,73.6
2023-03-22T00:49:12.873Z,73.6
2023-03-22T00:50:12.921Z,73.6
2023-03-22T00:51:12.934Z,73.6
2023-03-22T00:52:12.871Z,73.6
2023-03-22T00:53:12.921Z,73.6
2023-03-22T00:54:12.899Z,73.6
2023-03-22T00:55:12.909Z,73.6
2023-03-22T00:56:12.873Z,73.6
2023-03-22T00:57:12.864Z,73.6
2023-03-22T00:58:12.910Z,73.6
2023-03-22T00:59:12.876Z,73.6
2023-03-22T01:00:12.926Z,73.6
2023-03-22T01:01:12.889Z,73.6
2023-03-22T01:02:12.905Z,73.6
2023-03-22T01:03:12.978Z,73.6
2023-03-22T01:04:12.902Z,73.6
2023-03-22T01:05:12.910Z,73.6
2023-03-22T01:06:12.915Z,73.6
2023-03-22T01:07:12.908Z,73.6
2023-03-22T01:08:12.920Z,73.6
2023-03-22T01:09:12.869Z,73.6
2023-03-22T01:10:12.909Z,73.6
2023-03-22T01:11:12.886Z,73.6
2023-03-22T01:12:12.906Z,73.6
2023-03-22T01:13:12.868Z,73.6
2023-03-22T01:14:12.913Z,73.6
2023-03-22T01:15:12.912Z,73.6
2023-03-22T01:16:12.990Z,73.6
2023-03-22T01:17:12.872Z,73.6
2023-03-22T01:18:12.912Z,73.6
2023-03-22T01:19:12.872Z,73.6
2023-03-22T01:20:12.907Z,73.6
2023-03-22T01:21:12.906Z,73.6
2023-03-22T01:22:12.915Z,73.6
2023-03-22T01:23:12.898Z,73.6
2023-03-22T01:24:12.906Z,73.6
2023-03-22T01:25:12.876Z,73.6
2023-03-22T01:26:12.915Z,73.6
2023-03-22T01:27:12.879Z,73.6
2023-03-22T01:28:12.909Z,75.2
2023-03-22T01:29:12.897Z,75.2
2023-03-22T01:30:12.916Z,75.2
2023-03-22T01:31:13.022Z,75.2
2023-03-22T01:32:12.921Z,75.2
2023-03-22T01:33:12.908Z,75.1
2023-03-22T01:34:12.902Z,75.1
2023-03-22T01:35:12.911Z,75.1
2023-03-22T01:36:12.968Z,75.1
2023-03-22T01:37:12.909Z,75.1
2023-03-22T01:38:12.906Z,75.1
2023-03-22T01:39:12.914Z,75.1
2023-03-22T01:40:12.909Z,75.1
2023-03-22T01:41:12.895Z,75.1
2023-03-22T01:42:12.935Z,75.1
2023-03-22T01:43:12.901Z,75.1
2023-03-22T01:44:12.905Z,75.1
2023-03-22T01:45:12.919Z,75.1
2023-03-22T01:46:12.958Z,75.1
2023-03-22T01:47:12.903Z,75.1
2023-03-22T01:48:12.934Z,75.1
2023-03-22T01:49:12.944Z,75.1
2023-03-22T01:50:12.922Z,75.1
2023-03-22T01:51:12.885Z,75.1
2023-03-22T01:52:12.912Z,75.1
2023-03-22T01:53:12.960Z,76.2
2023-03-22T01:54:12.917Z,76.2
2023-03-22T01:55:12.922Z,76.2
2023-03-22T01:56:12.911Z,76.2
2023-03-22T01:57:12.967Z,76.2
2023-03-22T01:58:12.942Z,76.2
2023-03-22T01:59:12.928Z,76.2
2023-03-22T02:00:12.926Z,76.2
2023-03-22T02:01:13.071Z,76.2
2023-03-22T02:02:12.940Z,76.2
2023-03-22T02:03:12.918Z,76.2
2023-03-22T02:04:12.976Z,76.2
2023-03-22T02:05:12.927Z,76.2
2023-03-22T02:06:12.916Z,76.2
2023-03-22T02:07:12.917Z,76.2
2023-03-22T02:08:12.924Z,76.2
2023-03-22T02:09:12.961Z,76.2
2023-03-22T02:10:12.940Z,76.2
2023-03-22T02:11:12.921Z,76.2
2023-03-22T02:12:12.973Z,76.2
2023-03-22T02:13:12.940Z,76.2
2023-03-22T02:14:12.918Z,76.2
2023-03-22T02:15:12.966Z,76.2
2023-03-22T02:16:12.991Z,76.2
2023-03-22T02:17:12.941Z,76.2
2023-03-22T02:18:12.934Z,76.2
2023-03-22T02:19:12.966Z,76.2
2023-03-22T02:20:12.989Z,76.2
2023-03-22T02:21:12.932Z,76.2
2023-03-22T02:22:12.939Z,76.2
2023-03-22T02:23:12.950Z,76.2
2023-03-22T02:24:12.950Z,76.2
2023-03-22T02:25:12.942Z,77.2
2023-03-22T02:26:12.964Z,77.2
2023-03-22T02:27:12.944Z,77.2
2023-03-22T02:28:12.973Z,77.2
2023-03-22T02:29:12.940Z,77.2
2023-03-22T02:30:12.937Z,77.2
2023-03-22T02:31:13.056Z,77.2
2023-03-22T02:32:12.932Z,77.2
2023-03-22T02:33:12.934Z,77.2
2023-03-22T02:34:12.923Z,77.2
2023-03-22T02:35:12.941Z,77.6
2023-03-22T02:36:12.982Z,77.6
2023-03-22T02:37:13.004Z,77.6
2023-03-22T02:38:12.937Z,77.6
2023-03-22T02:39:12.965Z,77.6
2023-03-22T02:40:13.308Z,77.6
2023-03-22T02:41:12.938Z,77.6
2023-03-22T02:42:12.950Z,77.6
2023-03-22T02:43:12.950Z,77.6
2023-03-22T02:44:12.975Z,77.6
2023-03-22T02:45:12.947Z,77.6
2023-03-22T02:46:12.985Z,77.6
2023-03-22T02:47:13.038Z,77.6
2023-03-22T02:48:13.028Z,77.6
2023-03-22T02:49:12.948Z,77.6
2023-03-22T02:50:13.006Z,77.6
2023-03-22T02:51:12.986Z,77.6
2023-03-22T02:52:12.927Z,77.6
2023-03-22T02:53:12.934Z,77.6
2023-03-22T02:54:12.939Z,77.6
2023-03-22T02:55:12.980Z,77.6
2023-03-22T02:56:12.957Z,77.6
2023-03-22T02:57:12.982Z,77.6
2023-03-22T02:58:12.966Z,77.6
2023-03-22T02:59:12.959Z,77.6
2023-03-22T03:00:12.950Z,77.6
2023-03-22T03:01:13.011Z,77.6
2023-03-22T03:02:13.022Z,78.7
2023-03-22T03:03:12.976Z,78.7
2023-03-22T03:04:12.994Z,78.7
2023-03-22T03:05:12.950Z,78.7
2023-03-22T03:06:12.938Z,78.7
2023-03-22T03:07:12.962Z,78.7
2023-03-22T03:08:12.959Z,78.7
2023-03-22T03:09:12.941Z,78.7
2023-03-22T03:10:12.981Z,78.7
2023-03-22T03:11:12.976Z,78.7
2023-03-22T03:12:12.982Z,78.7
2023-03-22T03:13:12.955Z,78.7
2023-03-22T03:14:12.964Z,78.7
2023-03-22T03:15:13.040Z,78.7
2023-03-22T03:16:13.009Z,78.7
2023-03-22T03:17:12.948Z,78.7
2023-03-22T03:18:12.981Z,79.8
2023-03-22T03:19:12.979Z,79.9
2023-03-22T03:20:12.949Z,79.9
2023-03-22T03:21:12.983Z,79.9
2023-03-22T03:22:13.074Z,79.9
2023-03-22T03:23:12.987Z,79.9
2023-03-22T03:24:12.982Z,79.9
2023-03-22T03:25:12.986Z,79.9
2023-03-22T03:26:13.003Z,79.9
2023-03-22T03:27:13.020Z,79.9
2023-03-22T03:28:12.994Z,79.9
2023-03-22T03:29:12.987Z,79.9
2023-03-22T03:30:12.961Z,79.9
2023-03-22T03:31:13.051Z,79.9
2023-03-22T03:32:12.969Z,79.9
2023-03-22T03:33:12.989Z,79.9
2023-03-22T03:34:13.028Z,79.9
2023-03-22T03:35:12.978Z,79.9
2023-03-22T03:36:12.995Z,79.9
2023-03-22T03:37:13.010Z,79.9
2023-03-22T03:38:13.027Z,79.9
2023-03-22T03:39:12.963Z,79.9
2023-03-22T03:40:12.976Z,79.9
2023-03-22T03:41:12.984Z,79.9
2023-03-22T03:42:13.022Z,79.9
2023-03-22T03:43:12.963Z,79.9
2023-03-22T03:44:12.968Z,79.9
2023-03-22T03:45:12.973Z,79.9
2023-03-22T03:46:13.046Z,79.9
2023-03-22T03:47:12.966Z,79.9
2023-03-22T03:48:13.086Z,80.9
2023-03-22T03:49:13.023Z,80.9
2023-03-22T03:50:12.970Z,80.9
2023-03-22T03:51:12.964Z,80.9
2023-03-22T03:52:13.000Z,80.9
2023-03-22T03:53:12.972Z,80.9
2023-03-22T03:54:13.002Z,80.9
2023-03-22T03:55:13.012Z,80.9
2023-03-22T03:56:13.007Z,80.9
2023-03-22T03:57:13.064Z,80.9
2023-03-22T03:58:13.009Z,80.9
2023-03-22T03:59:13.002Z,80.9
2023-03-22T04:00:12.999Z,80.9
2023-03-22T04:01:13.009Z,80.9
2023-03-22T04:02:13.025Z,80.9
2023-03-22T04:03:13.044Z,80.9
2023-03-22T04:04:13.126Z,80.9
2023-03-22T04:05:13.006Z,80.9
2023-03-22T04:06:12.978Z,80.9
2023-03-22T04:07:13.006Z,80.9
2023-03-22T04:08:13.013Z,80.9
2023-03-22T04:09:13.006Z,80.9
2023-03-22T04:10:13.001Z,80.9
2023-03-22T04:11:13.054Z,80.9
2023-03-22T04:12:13.004Z,80.9
2023-03-22T04:13:12.975Z,80.9
2023-03-22T04:14:13.043Z,82
2023-03-22T04:15:12.981Z,82
2023-03-22T04:16:13.064Z,82
2023-03-22T04:17:13.014Z,82
2023-03-22T04:18:13.015Z,82
2023-03-22T04:19:13.018Z,82
2023-03-22T04:20:13.017Z,82
2023-03-22T04:21:13.009Z,82
2023-03-22T04:22:13.039Z,82
2023-03-22T04:23:13.010Z,82
2023-03-22T04:24:13.012Z,82
2023-03-22T04:25:13.040Z,82
2023-03-22T04:26:13.045Z,82
2023-03-22T04:27:13.086Z,82
2023-03-22T04:28:12.988Z,82
2023-03-22T04:29:13.042Z,82
2023-03-22T04:30:12.986Z,82
2023-03-22T04:31:13.031Z,82
2023-03-22T04:32:13.017Z,82
2023-03-22T04:33:13.036Z,82
2023-03-22T04:34:13.049Z,82
2023-03-22T04:35:12.982Z,82
2023-03-22T04:36:13.044Z,82
2023-03-22T04:37:13.015Z,82
2023-03-22T04:38:13.055Z,82
2023-03-22T04:39:13.000Z,82
2023-03-22T04:40:13.032Z,82
2023-03-22T04:41:13.035Z,82
2023-03-22T04:42:12.978Z,82
2023-03-22T04:43:13.860Z,82
2023-03-22T04:44:13.012Z,82
2023-03-22T04:45:13.001Z,82
2023-03-22T04:46:13.106Z,82
2023-03-22T04:47:12.993Z,82
2023-03-22T04:48:13.064Z,82
2023-03-22T04:49:13.035Z,82
2023-03-22T04:50:12.992Z,82
2023-03-22T04:51:13.004Z,82
2023-03-22T04:52:13.051Z,83.3
2023-03-22T04:53:13.037Z,83.3
2023-03-22T04:54:13.036Z,83.3
2023-03-22T04:55:13.047Z,83.3
2023-03-22T04:56:13.071Z,83.3
2023-03-22T04:57:13.050Z,83.3
2023-03-22T04:58:13.013Z,83.3
2023-03-22T04:59:13.012Z,83.3
2023-03-22T05:00:13.038Z,83.3
2023-03-22T05:01:13.073Z,83.3
2023-03-22T05:02:13.053Z,83.3
2023-03-22T05:03:13.110Z,83.3
2023-03-22T05:04:13.051Z,83.3
2023-03-22T05:05:13.078Z,83.3
2023-03-22T05:06:13.015Z,83.4
2023-03-22T05:07:13.018Z,83.4
2023-03-22T05:08:13.051Z,83.4
2023-03-22T05:09:13.046Z,83.4
2023-03-22T05:10:13.056Z,83.4
2023-03-22T05:11:13.062Z,83.4
2023-03-22T05:12:13.060Z,83.4
2023-03-22T05:13:13.041Z,83.4
2023-03-22T05:14:13.136Z,83.4
2023-03-22T05:15:13.054Z,83.4
2023-03-22T05:16:13.028Z,83.4
2023-03-22T05:17:13.009Z,83.4
2023-03-22T05:18:13.063Z,83.4
2023-03-22T05:19:13.027Z,83.4
2023-03-22T05:20:13.051Z,83.4
2023-03-22T05:21:13.027Z,83.4
2023-03-22T05:22:13.016Z,83.4
2023-03-22T05:23:13.010Z,83.4
2023-03-22T05:24:13.054Z,83.4
2023-03-22T05:25:13.059Z,83.8
2023-03-22T05:26:13.011Z,83.8
2023-03-22T05:27:13.026Z,83.8
2023-03-22T05:28:13.046Z,83.8
2023-03-22T05:29:13.066Z,83.8
2023-03-22T05:30:13.051Z,83.8
2023-03-22T05:31:13.125Z,83.8
2023-03-22T05:32:13.019Z,83.8
2023-03-22T05:33:13.058Z,83.8
2023-03-22T05:34:13.017Z,83.8
2023-03-22T05:35:13.022Z,83.8
2023-03-22T05:36:13.048Z,83.8
2023-03-22T05:37:13.101Z,83
2023-03-22T05:38:13.069Z,83
2023-03-22T05:39:13.061Z,83
2023-03-22T05:40:13.047Z,83
2023-03-22T05:41:13.069Z,83
2023-03-22T05:42:13.028Z,83
2023-03-22T05:43:13.068Z,83
2023-03-22T05:44:13.067Z,83
2023-03-22T05:45:13.058Z,83
2023-03-22T05:46:13.124Z,83
2023-03-22T05:47:13.039Z,83
2023-03-22T05:48:13.145Z,83
2023-03-22T05:49:13.051Z,82.1
2023-03-22T05:50:13.060Z,82.1
2023-03-22T05:51:13.030Z,82.1
2023-03-22T05:52:13.096Z,82.1
2023-03-22T05:53:13.059Z,82.1
2023-03-22T05:54:13.039Z,82.1
2023-03-22T05:55:13.171Z,82.1
2023-03-22T05:56:13.024Z,82.1
2023-03-22T05:57:13.028Z,81.6
2023-03-22T05:58:13.117Z,81.6
2023-03-22T05:59:13.042Z,81.6
2023-03-22T06:00:13.076Z,81.6
2023-03-22T06:01:13.029Z,81.6
2023-03-22T06:02:13.070Z,81.6
2023-03-22T06:03:15.140Z,81.6
2023-03-22T06:04:13.048Z,80.8
2023-03-22T06:05:13.059Z,80.8
2023-03-22T06:06:13.074Z,80.8
2023-03-22T06:07:13.071Z,80.8
2023-03-22T06:08:13.044Z,80.8
2023-03-22T06:09:17.360Z,80.8
2023-03-22T06:10:13.044Z,80.8
2023-03-22T06:11:13.104Z,80.8
2023-03-22T06:12:13.028Z,80.8
2023-03-22T06:13:13.134Z,80
2023-03-22T06:14:13.051Z,80
2023-03-22T06:15:13.055Z,80
2023-03-22T06:16:13.117Z,80
2023-03-22T06:17:13.071Z,80
2023-03-22T06:18:13.044Z,80
2023-03-22T06:19:13.036Z,79.3
2023-03-22T06:20:13.077Z,79.3
2023-03-22T06:21:13.085Z,79.3
2023-03-22T06:22:13.054Z,79.3
2023-03-22T06:23:13.050Z,79.3
2023-03-22T06:24:13.046Z,79.3
2023-03-22T06:25:13.065Z,79.3
2023-03-22T06:26:13.021Z,79.3
2023-03-22T06:27:13.098Z,79.3
2023-03-22T06:28:13.045Z,77.6
2023-03-22T06:29:13.046Z,77.6
2023-03-22T06:30:13.042Z,77.6
2023-03-22T06:31:13.141Z,77.6
2023-03-22T06:32:13.048Z,77.6
2023-03-22T06:33:13.056Z,77.6
2023-03-22T06:34:13.019Z,77.6
2023-03-22T06:35:13.045Z,77.6
2023-03-22T06:36:13.044Z,77.6
2023-03-22T06:37:13.049Z,77.6
2023-03-22T06:38:13.079Z,77.6
2023-03-22T06:39:13.046Z,76.4
2023-03-22T06:40:13.059Z,76.4
2023-03-22T06:41:13.076Z,76.4
2023-03-22T06:42:13.024Z,76.4
2023-03-22T06:43:13.048Z,76.4
2023-03-22T06:44:13.045Z,76.4
2023-03-22T06:45:13.087Z,76.4
2023-03-22T06:46:13.188Z,76.4
2023-03-22T06:47:13.113Z,76.4
2023-03-22T06:48:13.130Z,75.5
2023-03-22T06:49:13.048Z,75.5
2023-03-22T06:50:13.035Z,75.5
2023-03-22T06:51:13.042Z,75.5
2023-03-22T06:52:13.052Z,75.5
2023-03-22T06:53:13.077Z,75.5
2023-03-22T06:54:13.046Z,75.5
2023-03-22T06:55:13.051Z,75.5
2023-03-22T06:56:13.059Z,75.5
2023-03-22T06:57:13.099Z,75.5
2023-03-22T06:58:13.104Z,73.8
2023-03-22T06:59:13.067Z,73.8
2023-03-22T07:00:13.045Z,73.8
2023-03-22T07:01:13.069Z,73.8
2023-03-22T07:02:13.060Z,73.5
2023-03-22T07:03:13.045Z,73.5
2023-03-22T07:04:13.080Z,73.5
2023-03-22T07:05:13.058Z,73.5
2023-03-22T07:06:13.108Z,73.5
2023-03-22T07:07:13.095Z,73.5
2023-03-22T07:08:13.091Z,73.5
2023-03-22T07:09:13.048Z,72.7
2023-03-22T07:10:13.049Z,72.7
2023-03-22T07:11:13.121Z,72.7
2023-03-22T07:12:13.070Z,72.7
2023-03-22T07:13:13.061Z,72.7
2023-03-22T07:14:13.050Z,72.7
2023-03-22T07:15:13.055Z,72.7
2023-03-22T07:16:13.126Z,72.7
2023-03-22T07:17:13.096Z,72.7
2023-03-22T07:18:13.056Z,72.7
2023-03-22T07:19:13.064Z,72.7
2023-03-22T07:20:13.058Z,72.7
2023-03-22T07:21:13.075Z,72.7
2023-03-22T07:22:13.076Z,72.7
2023-03-22T07:23:13.078Z,70.8
2023-03-22T07:24:13.069Z,70.8
2023-03-22T07:25:13.058Z,70.8
2023-03-22T07:26:13.092Z,70.8
2023-03-22T07:27:13.087Z,70.8
2023-03-22T07:28:13.052Z,70.8
2023-03-22T07:29:13.068Z,70.8
2023-03-22T07:30:13.066Z,70.8
2023-03-22T07:31:13.087Z,70.8
2023-03-22T07:32:13.134Z,70.8
2023-03-22T07:33:13.064Z,70.8
2023-03-22T07:34:13.079Z,70.8
2023-03-22T07:35:13.055Z,70.8
2023-03-22T07:36:13.082Z,70.8
2023-03-22T07:37:13.109Z,70.8
2023-03-22T07:38:13.126Z,70.8
2023-03-22T07:39:13.079Z,70
2023-03-22T07:40:13.063Z,70
2023-03-22T07:41:13.056Z,70
2023-03-22T07:42:13.062Z,70
2023-03-22T07:43:13.094Z,70
2023-03-22T07:44:17.997Z,70
2023-03-22T07:45:13.112Z,70
2023-03-22T07:46:13.113Z,70
2023-03-22T07:47:13.086Z,70
2023-03-22T07:48:13.288Z,70
2023-03-22T07:49:13.119Z,70
2023-03-22T07:50:13.068Z,70
2023-03-22T07:51:13.098Z,70
2023-03-22T07:52:13.078Z,70
2023-03-22T07:53:13.061Z,67.7
2023-03-22T07:54:22.695Z,67.8
2023-03-22T07:55:13.086Z,67.8
2023-03-22T07:56:13.067Z,67.8
2023-03-22T07:57:13.088Z,67.8
2023-03-22T07:58:13.115Z,67.8
2023-03-22T07:59:13.209Z,67.8
2023-03-22T08:00:13.084Z,67.8
2023-03-22T08:01:13.063Z,67.8
2023-03-22T08:02:13.107Z,67.8
2023-03-22T08:03:13.189Z,67.8
2023-03-22T08:04:13.090Z,67.8
2023-03-22T08:05:13.105Z,66.1
2023-03-22T08:06:13.073Z,66.1
2023-03-22T08:07:13.119Z,66.1
2023-03-22T08:08:13.270Z,66.1
2023-03-22T08:09:13.121Z,66.1
2023-03-22T08:10:13.090Z,66.1
2023-03-22T08:11:13.095Z,66.1
2023-03-22T08:12:13.072Z,66.1
2023-03-22T08:13:13.077Z,66.1
2023-03-22T08:14:13.090Z,66.1
2023-03-22T08:15:13.136Z,66.1
2023-03-22T08:16:13.154Z,66.1
2023-03-22T08:17:13.091Z,64.3
2023-03-22T08:18:13.130Z,64.3
2023-03-22T08:19:13.077Z,64.3
2023-03-22T08:20:13.134Z,64.3
2023-03-22T08:21:13.110Z,64.3
2023-03-22T08:22:13.079Z,64.3
2023-03-22T08:23:13.074Z,64.3
2023-03-22T08:24:13.090Z,64.3
2023-03-22T08:25:13.073Z,64.3
2023-03-22T08:26:13.132Z,64.3
2023-03-22T08:27:13.085Z,64.3
2023-03-22T08:28:13.090Z,64.3
2023-03-22T08:29:13.066Z,62.8
2023-03-22T08:30:13.129Z,62.8
2023-03-22T08:31:14.732Z,62.8
2023-03-22T08:32:13.143Z,62.8
2023-03-22T08:33:13.072Z,62.8
2023-03-22T08:34:13.062Z,62.8
2023-03-22T08:35:13.136Z,62.8
2023-03-22T08:36:13.074Z,62.8
2023-03-22T08:37:13.142Z,62.8
2023-03-22T08:38:13.093Z,62.8
2023-03-22T08:39:13.097Z,62
2023-03-22T08:40:13.111Z,62
2023-03-22T08:41:13.168Z,62
2023-03-22T08:42:13.104Z,62
2023-03-22T08:43:13.072Z,62
2023-03-22T08:44:13.077Z,62
2023-03-22T08:45:13.089Z,62
2023-03-22T08:46:13.228Z,63.6
2023-03-22T08:47:13.168Z,63.6
2023-03-22T08:48:13.158Z,63.6
2023-03-22T08:49:13.102Z,63.6
2023-03-22T08:50:13.083Z,63.6
2023-03-22T08:51:13.090Z,63.6
2023-03-22T08:52:13.065Z,63.6
2023-03-22T08:53:13.101Z,63.6
2023-03-22T08:54:13.131Z,63.6
2023-03-22T08:55:13.062Z,63.6
2023-03-22T08:56:13.136Z,61.2
2023-03-22T08:57:13.070Z,61.2
2023-03-22T08:58:13.121Z,61.2
2023-03-22T08:59:13.088Z,61.2
2023-03-22T09:00:13.083Z,61.2
2023-03-22T09:01:13.223Z,61.2
2023-03-22T09:02:13.249Z,61.2
2023-03-22T09:03:13.090Z,61.2
2023-03-22T09:04:13.138Z,61.2
2023-03-22T09:05:13.098Z,61.2
2023-03-22T09:06:13.083Z,61.2
2023-03-22T09:07:13.069Z,61.2
2023-03-22T09:08:19.092Z,61.2
2023-03-22T09:09:13.085Z,60.4
2023-03-22T09:10:13.134Z,60.4
2023-03-22T09:11:13.091Z,60.4
2023-03-22T09:12:13.083Z,60.4
2023-03-22T09:13:13.091Z,60.4
2023-03-22T09:14:13.090Z,60.4
2023-03-22T09:15:13.133Z,60.4
2023-03-22T09:16:13.172Z,60.4
2023-03-22T09:17:13.141Z,60.4
2023-03-22T09:18:13.085Z,60.4
2023-03-22T09:19:13.089Z,60.4
2023-03-22T09:20:13.413Z,60.4
2023-03-22T09:21:13.125Z,60.4
2023-03-22T09:22:13.080Z,60.4
2023-03-22T09:23:13.079Z,60.4
2023-03-22T09:24:13.078Z,60.4
2023-03-22T09:25:13.456Z,60.4
2023-03-22T09:26:13.137Z,60.4
2023-03-22T09:27:13.159Z,60.4
2023-03-22T09:28:13.222Z,60.4
2023-03-22T09:29:13.128Z,60.4
2023-03-22T09:30:13.141Z,60.4
2023-03-22T09:31:13.135Z,60.4
2023-03-22T09:32:13.093Z,60.4
2023-03-22T09:33:13.137Z,60.4
2023-03-22T09:34:13.090Z,60.4
2023-03-22T09:35:13.099Z,60.4
2023-03-22T09:36:13.082Z,60.4
2023-03-22T09:37:13.102Z,60.4
2023-03-22T09:38:13.111Z,60.4
2023-03-22T09:39:13.108Z,59.3
2023-03-22T09:40:13.121Z,59.3
2023-03-22T09:41:13.080Z,59.3
2023-03-22T09:42:13.100Z,59.3
2023-03-22T09:43:13.094Z,59.3
2023-03-22T09:44:13.125Z,57.7
2023-03-22T09:45:13.091Z,57.7
2023-03-22T09:46:13.133Z,57.7
2023-03-22T09:47:13.143Z,57.7
2023-03-22T09:48:13.216Z,56.7
2023-03-22T09:49:13.103Z,56.7
2023-03-22T09:50:13.153Z,56.7
2023-03-22T09:51:13.083Z,56.7
2023-03-22T09:52:13.168Z,56.7
2023-03-22T09:53:13.097Z,56.7
2023-03-22T09:54:13.150Z,56.7
2023-03-22T09:55:13.142Z,56.7
2023-03-22T09:56:14.137Z,56.7
2023-03-22T09:57:13.141Z,56.7
2023-03-22T09:58:13.100Z,56.7
2023-03-22T09:59:14.106Z,56.7
2023-03-22T10:00:13.083Z,56.7
2023-03-22T10:01:13.329Z,56.7
2023-03-22T10:02:13.288Z,56.7
2023-03-22T10:03:13.134Z,54.9
2023-03-22T10:04:13.152Z,54.9
2023-03-22T10:05:13.163Z,54.9
2023-03-22T10:06:13.195Z,54.9
2023-03-22T10:07:13.136Z,54.9
2023-03-22T10:08:13.118Z,54.9
2023-03-22T10:09:13.156Z,54.9
2023-03-22T10:10:13.080Z,54.9
2023-03-22T10:11:13.118Z,54.9
2023-03-22T10:12:13.145Z,54.9
2023-03-22T10:13:13.111Z,54.9
2023-03-22T10:14:13.100Z,54.9
2023-03-22T10:15:13.132Z,54.9
2023-03-22T10:16:13.174Z,54.9
2023-03-22T10:17:13.178Z,54.9
2023-03-22T10:18:13.155Z,54.9
2023-03-22T10:19:13.138Z,54.9
2023-03-22T10:20:13.100Z,54.9
2023-03-22T10:21:13.119Z,54.9
2023-03-22T10:22:13.153Z,54.9
2023-03-22T10:23:13.124Z,54.9
2023-03-22T10:24:13.148Z,48.6
2023-03-22T10:25:13.154Z,48.6
2023-03-22T10:26:13.116Z,48.6
2023-03-22T10:27:13.910Z,48.6
2023-03-22T10:28:13.164Z,48.6
2023-03-22T10:29:13.155Z,48.6
2023-03-22T10:30:13.136Z,48.6
2023-03-22T10:31:13.186Z,48.6
2023-03-22T10:32:13.109Z,48.6
2023-03-22T10:33:13.112Z,48.6
2023-03-22T10:34:13.173Z,48.6
2023-03-22T10:35:13.128Z,48.6
2023-03-22T10:36:13.154Z,48.6
2023-03-22T10:37:13.162Z,48.6
2023-03-22T10:38:13.176Z,48.6
2023-03-22T10:39:14.528Z,49.3
2023-03-22T10:40:13.169Z,49.3
2023-03-22T10:41:13.190Z,49.3
2023-03-22T10:42:13.169Z,49.3
2023-03-22T10:43:13.165Z,49.3
2023-03-22T10:44:13.147Z,43.9
2023-03-22T10:45:13.129Z,43.9
2023-03-22T10:46:14.234Z,43.9
2023-03-22T10:47:13.165Z,43.9
2023-03-22T10:48:13.271Z,43.9
2023-03-22T10:49:13.156Z,43.9
2023-03-22T10:50:13.159Z,43.9
2023-03-22T10:51:13.181Z,43.9
2023-03-22T10:52:13.141Z,43.9
2023-03-22T10:53:13.119Z,43.9
2023-03-22T10:54:13.208Z,43.9
2023-03-22T10:55:13.196Z,43.9
2023-03-22T10:56:13.102Z,43.9
2023-03-22T10:57:13.105Z,43.9
2023-03-22T10:58:13.187Z,43.9
2023-03-22T10:59:13.128Z,43.9
2023-03-22T11:00:13.183Z,43.9
2023-03-22T11:01:13.290Z,43.9
2023-03-22T11:02:13.243Z,43.9
2023-03-22T11:03:13.402Z,43.9
2023-03-22T11:04:13.141Z,43.9
2023-03-22T11:05:13.163Z,43.9
2023-03-22T11:06:13.178Z,43.9
2023-03-22T11:07:13.297Z,43.9
2023-03-22T11:08:13.203Z,43.9
2023-03-22T11:09:13.219Z,43.9
2023-03-22T11:10:13.261Z,43.9
2023-03-22T11:11:13.128Z,43.9
2023-03-22T11:12:13.199Z,45
2023-03-22T11:13:13.171Z,45
2023-03-22T11:14:13.241Z,45
2023-03-22T11:15:13.196Z,45
2023-03-22T11:16:13.250Z,45
2023-03-22T11:17:13.145Z,45
2023-03-22T11:18:13.203Z,45
2023-03-22T11:19:13.136Z,45
2023-03-22T11:20:13.242Z,45
2023-03-22T11:21:13.177Z,42.6
2023-03-22T11:22:13.161Z,42.6
2023-03-22T11:23:13.173Z,42.6
2023-03-22T11:24:13.234Z,42.6
2023-03-22T11:25:13.171Z,42.6
2023-03-22T11:26:13.110Z,42.6
2023-03-22T11:27:13.176Z,42.6
2023-03-22T11:28:13.161Z,42.6
2023-03-22T11:29:13.139Z,42.6
2023-03-22T11:30:13.210Z,42.6
2023-03-22T11:31:13.236Z,42.6
2023-03-22T11:32:13.170Z,42.6
2023-03-22T11:33:13.213Z,42.6
2023-03-22T11:34:13.142Z,42.6
2023-03-22T11:35:13.203Z,42.6
2023-03-22T11:36:13.174Z,42.6
2023-03-22T11:37:15.682Z,41.1
2023-03-22T11:38:13.152Z,41.1
2023-03-22T11:39:13.146Z,41.1
2023-03-22T11:40:13.145Z,41.1
2023-03-22T11:41:13.290Z,41.1
2023-03-22T11:42:13.139Z,41.1
2023-03-22T11:43:13.164Z,41.1
2023-03-22T11:44:13.138Z,41.1
2023-03-22T11:45:13.150Z,41.1
2023-03-22T11:46:13.281Z,41.1
2023-03-22T11:47:13.140Z,41.1
2023-03-22T11:48:13.320Z,41.1
2023-03-22T11:49:13.255Z,41.1
2023-03-22T11:50:13.119Z,41.1
2023-03-22T11:51:13.146Z,41.1
2023-03-22T11:52:13.196Z,41.1
2023-03-22T11:53:13.147Z,41.1
2023-03-22T11:54:13.187Z,41.1
2023-03-22T11:55:13.142Z,41.1
2023-03-22T11:56:13.206Z,41.1
2023-03-22T11:57:13.182Z,41.1
2023-03-22T11:58:13.151Z,41.1
2023-03-22T11:59:13.183Z,41.1
2023-03-22T12:00:13.147Z,41.1
2023-03-22T12:01:13.316Z,41.1
2023-03-22T12:02:13.206Z,41.1
2023-03-22T12:03:13.308Z,41.1
2023-03-22T12:04:13.140Z,43.4
2023-03-22T12:05:13.266Z,43.4
2023-03-22T12:06:13.237Z,43.4
2023-03-22T12:07:13.215Z,43.4
2023-03-22T12:08:13.150Z,43.4
2023-03-22T12:09:13.145Z,43.4
2023-03-22T12:10:13.172Z,43.4
2023-03-22T12:11:13.166Z,43.4
2023-03-22T12:12:13.153Z,43.4
2023-03-22T12:13:13.232Z,43.4
2023-03-22T12:14:13.168Z,43.4
2023-03-22T12:15:13.194Z,43.4
2023-03-22T12:16:13.313Z,43.4
2023-03-22T12:17:13.154Z,43.4
2023-03-22T12:18:13.211Z,43.4
2023-03-22T12:19:13.150Z,43.4
2023-03-22T12:20:13.164Z,43.4
2023-03-22T12:21:13.197Z,42.6
2023-03-22T12:22:13.145Z,42.6
2023-03-22T12:23:13.187Z,42.6
2023-03-22T12:24:13.149Z,42.6
2023-03-22T12:25:13.203Z,42.6
2023-03-22T12:26:13.162Z,42.6
2023-03-22T12:27:13.168Z,42.6
2023-03-22T12:28:13.198Z,42.6
2023-03-22T12:29:13.257Z,42.6
2023-03-22T12:30:13.233Z,42.6
2023-03-22T12:31:13.165Z,42.6
2023-03-22T12:32:13.158Z,44.4
2023-03-22T12:33:13.262Z,44.4
2023-03-22T12:34:13.171Z,44.4
2023-03-22T12:35:17.588Z,44.4
2023-03-22T12:36:13.302Z,44.4
2023-03-22T12:37:13.165Z,41.1
2023-03-22T12:38:13.179Z,41.1
2023-03-22T12:39:13.205Z,41.1
2023-03-22T12:40:13.167Z,41.1
2023-03-22T12:41:13.238Z,41.1
2023-03-22T12:42:13.165Z,41.1
2023-03-22T12:43:13.189Z,41.1
2023-03-22T12:44:13.234Z,41.1
2023-03-22T12:45:13.172Z,41.1
2023-03-22T12:46:13.239Z,41.1
2023-03-22T12:47:13.224Z,41.1
2023-03-22T12:48:13.297Z,41.1
2023-03-22T12:49:13.184Z,41.1
2023-03-22T12:50:13.419Z,41.1
2023-03-22T12:51:13.188Z,41.1
2023-03-22T12:52:13.181Z,41.1
2023-03-22T12:53:13.162Z,40.6
2023-03-22T12:54:13.205Z,40.6
2023-03-22T12:55:13.174Z,40.6
2023-03-22T12:56:13.233Z,40.6
2023-03-22T12:57:13.197Z,40.6
2023-03-22T12:58:13.202Z,40.6
2023-03-22T12:59:13.252Z,40.6
2023-03-22T13:00:13.289Z,40.6
2023-03-22T13:01:13.441Z,40.6
2023-03-22T13:02:13.207Z,40.6
2023-03-22T13:03:13.244Z,40.6
2023-03-22T13:04:13.260Z,40.6
2023-03-22T13:05:13.203Z,40.6
2023-03-22T13:06:13.242Z,40.6
2023-03-22T13:07:13.172Z,40.6
2023-03-22T13:08:13.193Z,40.6
2023-03-22T13:09:13.268Z,40.6
2023-03-22T13:10:13.178Z,40.6
2023-03-22T13:11:13.167Z,40.6
2023-03-22T13:12:13.338Z,40.6
2023-03-22T13:13:13.183Z,40.6
2023-03-22T13:14:13.171Z,40.6
2023-03-22T13:15:13.235Z,40.6
2023-03-22T13:16:13.249Z,40.6
2023-03-22T13:17:13.183Z,40.6
2023-03-22T13:18:13.201Z,40.6
2023-03-22T13:19:13.229Z,40.6
2023-03-22T13:20:13.480Z,40.6
2023-03-22T13:21:13.239Z,40.6
2023-03-22T13:22:13.220Z,40.6
2023-03-22T13:23:13.212Z,40.6
2023-03-22T13:24:13.194Z,40.6